sensor_id;sensor_type;location;lat;lon;timestamp;P1;durP1;ratioP1;P2;durP2;ratioP2
24567;SDS011;12731;52.182;8.716;2024-01-11T00:00:35;59.08;;;28.05;;
24567;SDS011;12731;52.182;8.716;2024-01-11T00:03:02;53.78;;;28.35;;
24567;SDS011;12731;52.182;8.716;2024-01-11T00:05:29;58.47;;;28.23;;
24567;SDS011;12731;52.182;8.716;2024-01-11T00:07:56;59.03;;;29.20;;
24567;SDS011;12731;52.182;8.716;2024-01-11T00:10:22;57.15;;;27.90;;
24567;SDS011;12731;52.182;8.716;2024-01-11T00:12:49;60.25;;;26.70;;
24567;SDS011;12731;52.182;8.716;2024-01-11T00:15:16;59.72;;;28.10;;
24567;SDS011;12731;52.182;8.716;2024-01-11T00:17:42;59.28;;;28.45;;
24567;SDS011;12731;52.182;8.716;2024-01-11T00:20:09;55.33;;;26.98;;
24567;SDS011;12731;52.182;8.716;2024-01-11T00:22:37;58.45;;;28.35;;
24567;SDS011;12731;52.182;8.716;2024-01-11T00:25:03;61.85;;;29.08;;
24567;SDS011;12731;52.182;8.716;2024-01-11T00:27:31;67.63;;;31.35;;
24567;SDS011;12731;52.182;8.716;2024-01-11T00:29:57;60.95;;;30.02;;
24567;SDS011;12731;52.182;8.716;2024-01-11T00:32:24;58.20;;;28.10;;
24567;SDS011;12731;52.182;8.716;2024-01-11T00:34:50;60.10;;;28.42;;
24567;SDS011;12731;52.182;8.716;2024-01-11T00:37:17;59.33;;;27.58;;
24567;SDS011;12731;52.182;8.716;2024-01-11T00:39:44;65.88;;;29.77;;
24567;SDS011;12731;52.182;8.716;2024-01-11T00:42:10;58.13;;;28.95;;
24567;SDS011;12731;52.182;8.716;2024-01-11T00:44:37;62.03;;;28.50;;
24567;SDS011;12731;52.182;8.716;2024-01-11T00:47:03;61.60;;;29.13;;
24567;SDS011;12731;52.182;8.716;2024-01-11T00:49:30;64.30;;;30.13;;
24567;SDS011;12731;52.182;8.716;2024-01-11T00:51:56;65.40;;;31.60;;
24567;SDS011;12731;52.182;8.716;2024-01-11T00:54:23;62.58;;;30.95;;
24567;SDS011;12731;52.182;8.716;2024-01-11T00:56:50;66.20;;;31.17;;
24567;SDS011;12731;52.182;8.716;2024-01-11T00:59:17;67.32;;;30.35;;
24567;SDS011;12731;52.182;8.716;2024-01-11T01:01:50;66.78;;;31.25;;
24567;SDS011;12731;52.182;8.716;2024-01-11T01:04:17;64.88;;;30.85;;
24567;SDS011;12731;52.182;8.716;2024-01-11T01:06:43;67.88;;;31.02;;
24567;SDS011;12731;52.182;8.716;2024-01-11T01:09:10;65.20;;;30.60;;
24567;SDS011;12731;52.182;8.716;2024-01-11T01:11:37;66.53;;;31.33;;
24567;SDS011;12731;52.182;8.716;2024-01-11T01:14:04;65.68;;;31.35;;
24567;SDS011;12731;52.182;8.716;2024-01-11T01:16:31;60.95;;;30.20;;
24567;SDS011;12731;52.182;8.716;2024-01-11T01:18:57;59.47;;;29.88;;
24567;SDS011;12731;52.182;8.716;2024-01-11T01:21:24;63.10;;;30.13;;
24567;SDS011;12731;52.182;8.716;2024-01-11T01:23:51;63.92;;;31.08;;
24567;SDS011;12731;52.182;8.716;2024-01-11T01:26:18;71.10;;;30.88;;
24567;SDS011;12731;52.182;8.716;2024-01-11T01:28:45;66.35;;;31.02;;
24567;SDS011;12731;52.182;8.716;2024-01-11T01:31:11;65.97;;;31.77;;
24567;SDS011;12731;52.182;8.716;2024-01-11T01:33:39;63.67;;;29.65;;
24567;SDS011;12731;52.182;8.716;2024-01-11T01:36:12;61.63;;;28.55;;
24567;SDS011;12731;52.182;8.716;2024-01-11T01:38:39;60.08;;;30.35;;
24567;SDS011;12731;52.182;8.716;2024-01-11T01:41:05;63.25;;;29.33;;
24567;SDS011;12731;52.182;8.716;2024-01-11T01:43:32;63.10;;;29.98;;
24567;SDS011;12731;52.182;8.716;2024-01-11T01:45:58;64.95;;;30.75;;
24567;SDS011;12731;52.182;8.716;2024-01-11T01:48:25;63.58;;;30.55;;
24567;SDS011;12731;52.182;8.716;2024-01-11T01:50:53;68.95;;;31.17;;
24567;SDS011;12731;52.182;8.716;2024-01-11T01:53:19;68.53;;;30.83;;
24567;SDS011;12731;52.182;8.716;2024-01-11T01:55:48;65.82;;;31.50;;
24567;SDS011;12731;52.182;8.716;2024-01-11T01:58:15;66.30;;;30.52;;
24567;SDS011;12731;52.182;8.716;2024-01-11T02:00:43;61.85;;;30.02;;
24567;SDS011;12731;52.182;8.716;2024-01-11T02:03:11;70.80;;;32.83;;
24567;SDS011;12731;52.182;8.716;2024-01-11T02:05:38;67.85;;;32.30;;
24567;SDS011;12731;52.182;8.716;2024-01-11T02:08:06;62.63;;;30.55;;
24567;SDS011;12731;52.182;8.716;2024-01-11T02:10:36;66.18;;;30.80;;
24567;SDS011;12731;52.182;8.716;2024-01-11T02:13:02;69.60;;;30.95;;
24567;SDS011;12731;52.182;8.716;2024-01-11T02:15:34;65.82;;;31.92;;
24567;SDS011;12731;52.182;8.716;2024-01-11T02:18:01;69.25;;;31.92;;
24567;SDS011;12731;52.182;8.716;2024-01-11T02:20:27;68.85;;;32.00;;
24567;SDS011;12731;52.182;8.716;2024-01-11T02:22:56;63.67;;;30.00;;
24567;SDS011;12731;52.182;8.716;2024-01-11T02:25:25;67.40;;;31.55;;
24567;SDS011;12731;52.182;8.716;2024-01-11T02:27:51;69.78;;;31.45;;
24567;SDS011;12731;52.182;8.716;2024-01-11T02:30:18;64.63;;;30.88;;
24567;SDS011;12731;52.182;8.716;2024-01-11T02:32:45;68.35;;;30.92;;
24567;SDS011;12731;52.182;8.716;2024-01-11T02:35:13;68.30;;;31.75;;
24567;SDS011;12731;52.182;8.716;2024-01-11T02:37:41;70.90;;;31.67;;
24567;SDS011;12731;52.182;8.716;2024-01-11T02:40:08;65.03;;;30.88;;
24567;SDS011;12731;52.182;8.716;2024-01-11T02:42:35;66.15;;;31.52;;
24567;SDS011;12731;52.182;8.716;2024-01-11T02:45:05;66.85;;;30.83;;
24567;SDS011;12731;52.182;8.716;2024-01-11T02:47:31;66.32;;;30.20;;
24567;SDS011;12731;52.182;8.716;2024-01-11T02:49:58;67.75;;;30.58;;
24567;SDS011;12731;52.182;8.716;2024-01-11T02:52:25;69.43;;;31.38;;
24567;SDS011;12731;52.182;8.716;2024-01-11T02:54:52;68.28;;;31.73;;
24567;SDS011;12731;52.182;8.716;2024-01-11T02:57:18;67.15;;;33.42;;
24567;SDS011;12731;52.182;8.716;2024-01-11T02:59:45;70.00;;;32.75;;
24567;SDS011;12731;52.182;8.716;2024-01-11T03:02:11;69.38;;;33.15;;
24567;SDS011;12731;52.182;8.716;2024-01-11T03:04:38;66.88;;;31.73;;
24567;SDS011;12731;52.182;8.716;2024-01-11T03:07:04;61.10;;;30.63;;
24567;SDS011;12731;52.182;8.716;2024-01-11T03:09:31;66.55;;;31.58;;
24567;SDS011;12731;52.182;8.716;2024-01-11T03:11:58;59.83;;;30.45;;
24567;SDS011;12731;52.182;8.716;2024-01-11T03:14:24;67.38;;;32.30;;
24567;SDS011;12731;52.182;8.716;2024-01-11T03:16:51;73.90;;;31.95;;
24567;SDS011;12731;52.182;8.716;2024-01-11T03:19:18;68.88;;;31.27;;
24567;SDS011;12731;52.182;8.716;2024-01-11T03:21:45;67.90;;;32.35;;
24567;SDS011;12731;52.182;8.716;2024-01-11T03:24:13;70.60;;;32.20;;
24567;SDS011;12731;52.182;8.716;2024-01-11T03:26:40;61.13;;;31.23;;
24567;SDS011;12731;52.182;8.716;2024-01-11T03:29:07;63.88;;;30.90;;
24567;SDS011;12731;52.182;8.716;2024-01-11T03:31:34;62.25;;;30.90;;
24567;SDS011;12731;52.182;8.716;2024-01-11T03:34:00;65.90;;;30.98;;
24567;SDS011;12731;52.182;8.716;2024-01-11T03:36:27;68.63;;;30.83;;
24567;SDS011;12731;52.182;8.716;2024-01-11T03:38:54;64.07;;;30.67;;
24567;SDS011;12731;52.182;8.716;2024-01-11T03:41:20;64.72;;;31.40;;
24567;SDS011;12731;52.182;8.716;2024-01-11T03:43:47;62.13;;;30.00;;
24567;SDS011;12731;52.182;8.716;2024-01-11T03:46:13;62.97;;;30.05;;
24567;SDS011;12731;52.182;8.716;2024-01-11T03:48:40;64.57;;;30.13;;
24567;SDS011;12731;52.182;8.716;2024-01-11T03:51:06;57.05;;;28.35;;
24567;SDS011;12731;52.182;8.716;2024-01-11T03:53:36;64.65;;;30.23;;
24567;SDS011;12731;52.182;8.716;2024-01-11T03:56:04;63.13;;;29.50;;
24567;SDS011;12731;52.182;8.716;2024-01-11T03:58:31;69.20;;;30.70;;
24567;SDS011;12731;52.182;8.716;2024-01-11T04:00:59;58.95;;;30.25;;
24567;SDS011;12731;52.182;8.716;2024-01-11T04:03:26;59.53;;;27.98;;
24567;SDS011;12731;52.182;8.716;2024-01-11T04:05:53;66.03;;;30.95;;
24567;SDS011;12731;52.182;8.716;2024-01-11T04:08:19;67.00;;;31.35;;
24567;SDS011;12731;52.182;8.716;2024-01-11T04:10:46;63.78;;;29.75;;
24567;SDS011;12731;52.182;8.716;2024-01-11T04:13:13;59.58;;;29.08;;
24567;SDS011;12731;52.182;8.716;2024-01-11T04:15:39;62.33;;;28.00;;
24567;SDS011;12731;52.182;8.716;2024-01-11T04:18:06;70.13;;;31.88;;
24567;SDS011;12731;52.182;8.716;2024-01-11T04:20:33;65.90;;;30.83;;
24567;SDS011;12731;52.182;8.716;2024-01-11T04:23:00;61.13;;;30.73;;
24567;SDS011;12731;52.182;8.716;2024-01-11T04:25:26;63.47;;;30.38;;
24567;SDS011;12731;52.182;8.716;2024-01-11T04:27:53;59.35;;;30.15;;
24567;SDS011;12731;52.182;8.716;2024-01-11T04:30:19;62.75;;;29.35;;
24567;SDS011;12731;52.182;8.716;2024-01-11T04:32:46;62.28;;;29.40;;
24567;SDS011;12731;52.182;8.716;2024-01-11T04:35:12;65.85;;;31.25;;
24567;SDS011;12731;52.182;8.716;2024-01-11T04:37:39;63.88;;;30.75;;
24567;SDS011;12731;52.182;8.716;2024-01-11T04:40:06;63.08;;;31.35;;
24567;SDS011;12731;52.182;8.716;2024-01-11T04:42:33;61.75;;;29.90;;
24567;SDS011;12731;52.182;8.716;2024-01-11T04:45:00;62.53;;;30.02;;
24567;SDS011;12731;52.182;8.716;2024-01-11T04:47:26;65.32;;;30.85;;
24567;SDS011;12731;52.182;8.716;2024-01-11T04:49:53;58.15;;;29.83;;
24567;SDS011;12731;52.182;8.716;2024-01-11T04:52:19;70.63;;;32.35;;
24567;SDS011;12731;52.182;8.716;2024-01-11T04:54:46;63.05;;;32.38;;
24567;SDS011;12731;52.182;8.716;2024-01-11T04:57:12;68.32;;;32.42;;
24567;SDS011;12731;52.182;8.716;2024-01-11T04:59:39;68.57;;;31.13;;
24567;SDS011;12731;52.182;8.716;2024-01-11T05:02:05;67.07;;;31.65;;
24567;SDS011;12731;52.182;8.716;2024-01-11T05:04:32;60.05;;;30.20;;
24567;SDS011;12731;52.182;8.716;2024-01-11T05:06:59;66.18;;;31.45;;
24567;SDS011;12731;52.182;8.716;2024-01-11T05:09:25;67.75;;;32.35;;
24567;SDS011;12731;52.182;8.716;2024-01-11T05:11:52;69.32;;;31.95;;
24567;SDS011;12731;52.182;8.716;2024-01-11T05:14:18;67.45;;;31.65;;
24567;SDS011;12731;52.182;8.716;2024-01-11T05:16:45;65.00;;;30.48;;
24567;SDS011;12731;52.182;8.716;2024-01-11T05:19:11;63.75;;;30.58;;
24567;SDS011;12731;52.182;8.716;2024-01-11T05:21:38;68.05;;;31.45;;
24567;SDS011;12731;52.182;8.716;2024-01-11T05:24:05;63.70;;;29.02;;
24567;SDS011;12731;52.182;8.716;2024-01-11T05:26:36;61.45;;;29.90;;
24567;SDS011;12731;52.182;8.716;2024-01-11T05:29:02;65.10;;;30.20;;
24567;SDS011;12731;52.182;8.716;2024-01-11T05:31:31;63.33;;;30.67;;
24567;SDS011;12731;52.182;8.716;2024-01-11T05:33:57;59.83;;;29.20;;
24567;SDS011;12731;52.182;8.716;2024-01-11T05:36:24;61.22;;;29.58;;
24567;SDS011;12731;52.182;8.716;2024-01-11T05:38:51;66.50;;;32.53;;
24567;SDS011;12731;52.182;8.716;2024-01-11T05:41:17;69.40;;;32.85;;
24567;SDS011;12731;52.182;8.716;2024-01-11T05:43:44;69.18;;;31.00;;
24567;SDS011;12731;52.182;8.716;2024-01-11T05:46:11;62.72;;;30.67;;
24567;SDS011;12731;52.182;8.716;2024-01-11T05:48:37;71.13;;;32.42;;
24567;SDS011;12731;52.182;8.716;2024-01-11T05:51:04;70.05;;;33.75;;
24567;SDS011;12731;52.182;8.716;2024-01-11T05:53:31;67.88;;;33.20;;
24567;SDS011;12731;52.182;8.716;2024-01-11T05:56:01;77.57;;;34.80;;
24567;SDS011;12731;52.182;8.716;2024-01-11T05:58:29;74.95;;;35.95;;
24567;SDS011;12731;52.182;8.716;2024-01-11T06:00:56;83.32;;;38.83;;
24567;SDS011;12731;52.182;8.716;2024-01-11T06:03:23;78.25;;;38.03;;
24567;SDS011;12731;52.182;8.716;2024-01-11T06:05:49;78.65;;;36.08;;
24567;SDS011;12731;52.182;8.716;2024-01-11T06:08:16;70.82;;;33.65;;
24567;SDS011;12731;52.182;8.716;2024-01-11T06:10:43;64.47;;;34.15;;
24567;SDS011;12731;52.182;8.716;2024-01-11T06:13:09;65.85;;;33.25;;
24567;SDS011;12731;52.182;8.716;2024-01-11T06:15:36;74.13;;;34.17;;
24567;SDS011;12731;52.182;8.716;2024-01-11T06:18:03;68.00;;;33.03;;
24567;SDS011;12731;52.182;8.716;2024-01-11T06:20:31;63.42;;;30.35;;
24567;SDS011;12731;52.182;8.716;2024-01-11T06:22:57;66.80;;;33.30;;
24567;SDS011;12731;52.182;8.716;2024-01-11T06:25:24;64.75;;;31.83;;
24567;SDS011;12731;52.182;8.716;2024-01-11T06:27:50;61.17;;;30.73;;
24567;SDS011;12731;52.182;8.716;2024-01-11T06:30:17;66.85;;;32.45;;
24567;SDS011;12731;52.182;8.716;2024-01-11T06:32:44;66.88;;;32.70;;
24567;SDS011;12731;52.182;8.716;2024-01-11T06:35:10;73.25;;;34.05;;
24567;SDS011;12731;52.182;8.716;2024-01-11T06:37:37;59.55;;;30.70;;
24567;SDS011;12731;52.182;8.716;2024-01-11T06:40:03;66.90;;;30.65;;
24567;SDS011;12731;52.182;8.716;2024-01-11T06:42:30;66.50;;;32.60;;
24567;SDS011;12731;52.182;8.716;2024-01-11T06:44:57;65.28;;;31.63;;
24567;SDS011;12731;52.182;8.716;2024-01-11T06:47:24;72.20;;;33.67;;
24567;SDS011;12731;52.182;8.716;2024-01-11T06:49:51;65.75;;;30.85;;
24567;SDS011;12731;52.182;8.716;2024-01-11T06:52:17;64.78;;;32.45;;
24567;SDS011;12731;52.182;8.716;2024-01-11T06:54:46;70.07;;;32.40;;
24567;SDS011;12731;52.182;8.716;2024-01-11T06:57:14;62.17;;;31.40;;
24567;SDS011;12731;52.182;8.716;2024-01-11T06:59:41;68.68;;;32.05;;
24567;SDS011;12731;52.182;8.716;2024-01-11T07:02:08;71.10;;;30.23;;
24567;SDS011;12731;52.182;8.716;2024-01-11T07:04:37;74.18;;;32.65;;
24567;SDS011;12731;52.182;8.716;2024-01-11T07:07:04;74.07;;;30.80;;
24567;SDS011;12731;52.182;8.716;2024-01-11T07:09:31;67.18;;;30.35;;
24567;SDS011;12731;52.182;8.716;2024-01-11T07:11:59;64.57;;;29.02;;
24567;SDS011;12731;52.182;8.716;2024-01-11T07:14:27;63.88;;;29.92;;
24567;SDS011;12731;52.182;8.716;2024-01-11T07:17:08;70.57;;;31.02;;
24567;SDS011;12731;52.182;8.716;2024-01-11T07:19:36;65.05;;;32.03;;
24567;SDS011;12731;52.182;8.716;2024-01-11T07:22:04;67.30;;;31.77;;
24567;SDS011;12731;52.182;8.716;2024-01-11T07:24:31;72.40;;;32.67;;
24567;SDS011;12731;52.182;8.716;2024-01-11T07:27:04;72.68;;;33.55;;
24567;SDS011;12731;52.182;8.716;2024-01-11T07:29:33;71.32;;;33.08;;
24567;SDS011;12731;52.182;8.716;2024-01-11T07:32:02;74.55;;;34.75;;
24567;SDS011;12731;52.182;8.716;2024-01-11T07:34:30;69.97;;;34.65;;
24567;SDS011;12731;52.182;8.716;2024-01-11T07:36:59;76.07;;;36.40;;
24567;SDS011;12731;52.182;8.716;2024-01-11T07:39:30;75.78;;;35.10;;
24567;SDS011;12731;52.182;8.716;2024-01-11T07:41:58;68.43;;;33.13;;
24567;SDS011;12731;52.182;8.716;2024-01-11T07:44:30;77.53;;;36.10;;
24567;SDS011;12731;52.182;8.716;2024-01-11T07:46:58;67.88;;;33.10;;
24567;SDS011;12731;52.182;8.716;2024-01-11T07:49:39;73.53;;;33.63;;
24567;SDS011;12731;52.182;8.716;2024-01-11T07:52:10;75.57;;;34.13;;
24567;SDS011;12731;52.182;8.716;2024-01-11T07:54:40;72.05;;;34.38;;
24567;SDS011;12731;52.182;8.716;2024-01-11T07:57:36;70.78;;;33.33;;
24567;SDS011;12731;52.182;8.716;2024-01-11T08:00:03;72.60;;;33.63;;
24567;SDS011;12731;52.182;8.716;2024-01-11T08:02:33;75.70;;;33.60;;
24567;SDS011;12731;52.182;8.716;2024-01-11T08:04:59;72.85;;;34.15;;
24567;SDS011;12731;52.182;8.716;2024-01-11T08:07:26;67.90;;;32.78;;
24567;SDS011;12731;52.182;8.716;2024-01-11T08:09:53;69.68;;;34.63;;
24567;SDS011;12731;52.182;8.716;2024-01-11T08:12:20;71.93;;;33.67;;
24567;SDS011;12731;52.182;8.716;2024-01-11T08:14:47;66.47;;;32.33;;
24567;SDS011;12731;52.182;8.716;2024-01-11T08:17:14;66.78;;;31.73;;
24567;SDS011;12731;52.182;8.716;2024-01-11T08:19:40;68.10;;;33.65;;
24567;SDS011;12731;52.182;8.716;2024-01-11T08:22:09;73.63;;;34.90;;
24567;SDS011;12731;52.182;8.716;2024-01-11T08:24:36;72.75;;;35.38;;
24567;SDS011;12731;52.182;8.716;2024-01-11T08:27:03;84.43;;;40.15;;
24567;SDS011;12731;52.182;8.716;2024-01-11T08:29:30;78.78;;;38.25;;
24567;SDS011;12731;52.182;8.716;2024-01-11T08:31:56;76.95;;;38.38;;
24567;SDS011;12731;52.182;8.716;2024-01-11T08:34:24;83.80;;;41.08;;
24567;SDS011;12731;52.182;8.716;2024-01-11T08:36:52;80.90;;;39.53;;
24567;SDS011;12731;52.182;8.716;2024-01-11T08:39:19;76.90;;;39.15;;
24567;SDS011;12731;52.182;8.716;2024-01-11T08:41:47;79.80;;;39.33;;
24567;SDS011;12731;52.182;8.716;2024-01-11T08:44:14;75.72;;;36.28;;
24567;SDS011;12731;52.182;8.716;2024-01-11T08:46:40;72.75;;;36.92;;
24567;SDS011;12731;52.182;8.716;2024-01-11T08:49:07;78.60;;;36.80;;
24567;SDS011;12731;52.182;8.716;2024-01-11T08:51:34;79.78;;;36.63;;
24567;SDS011;12731;52.182;8.716;2024-01-11T08:54:01;72.28;;;33.83;;
24567;SDS011;12731;52.182;8.716;2024-01-11T08:56:27;71.38;;;33.15;;
24567;SDS011;12731;52.182;8.716;2024-01-11T08:58:54;74.68;;;34.33;;
24567;SDS011;12731;52.182;8.716;2024-01-11T09:01:20;71.88;;;33.63;;
24567;SDS011;12731;52.182;8.716;2024-01-11T09:03:48;67.47;;;31.50;;
24567;SDS011;12731;52.182;8.716;2024-01-11T09:06:15;70.57;;;33.63;;
24567;SDS011;12731;52.182;8.716;2024-01-11T09:08:41;66.13;;;33.45;;
24567;SDS011;12731;52.182;8.716;2024-01-11T09:11:08;72.82;;;33.13;;
24567;SDS011;12731;52.182;8.716;2024-01-11T09:13:36;61.47;;;31.75;;
24567;SDS011;12731;52.182;8.716;2024-01-11T09:16:03;69.80;;;33.38;;
24567;SDS011;12731;52.182;8.716;2024-01-11T09:18:29;72.40;;;33.67;;
24567;SDS011;12731;52.182;8.716;2024-01-11T09:20:57;69.00;;;33.85;;
24567;SDS011;12731;52.182;8.716;2024-01-11T09:23:23;64.50;;;34.28;;
24567;SDS011;12731;52.182;8.716;2024-01-11T09:25:50;65.78;;;34.42;;
24567;SDS011;12731;52.182;8.716;2024-01-11T09:28:16;66.50;;;33.90;;
24567;SDS011;12731;52.182;8.716;2024-01-11T09:30:42;72.80;;;33.90;;
24567;SDS011;12731;52.182;8.716;2024-01-11T09:33:09;73.30;;;34.70;;
24567;SDS011;12731;52.182;8.716;2024-01-11T09:35:36;63.25;;;33.55;;
24567;SDS011;12731;52.182;8.716;2024-01-11T09:38:02;69.97;;;33.83;;
24567;SDS011;12731;52.182;8.716;2024-01-11T09:40:30;69.13;;;35.00;;
24567;SDS011;12731;52.182;8.716;2024-01-11T09:42:56;71.68;;;35.67;;
24567;SDS011;12731;52.182;8.716;2024-01-11T09:45:23;64.57;;;33.25;;
24567;SDS011;12731;52.182;8.716;2024-01-11T09:47:51;65.95;;;34.28;;
24567;SDS011;12731;52.182;8.716;2024-01-11T09:50:19;72.40;;;34.60;;
24567;SDS011;12731;52.182;8.716;2024-01-11T09:52:48;73.35;;;33.88;;
24567;SDS011;12731;52.182;8.716;2024-01-11T09:55:15;66.22;;;32.58;;
24567;SDS011;12731;52.182;8.716;2024-01-11T09:57:46;57.10;;;30.00;;
24567;SDS011;12731;52.182;8.716;2024-01-11T10:00:14;57.25;;;30.70;;
24567;SDS011;12731;52.182;8.716;2024-01-11T10:02:42;59.35;;;30.05;;
24567;SDS011;12731;52.182;8.716;2024-01-11T10:05:09;55.75;;;28.77;;
24567;SDS011;12731;52.182;8.716;2024-01-11T10:07:39;59.58;;;30.15;;
24567;SDS011;12731;52.182;8.716;2024-01-11T10:10:07;56.85;;;30.05;;
24567;SDS011;12731;52.182;8.716;2024-01-11T10:12:36;56.25;;;28.65;;
24567;SDS011;12731;52.182;8.716;2024-01-11T10:15:07;54.95;;;28.23;;
24567;SDS011;12731;52.182;8.716;2024-01-11T10:17:43;57.83;;;29.85;;
24567;SDS011;12731;52.182;8.716;2024-01-11T10:20:13;53.30;;;26.95;;
24567;SDS011;12731;52.182;8.716;2024-01-11T10:22:41;53.15;;;27.30;;
24567;SDS011;12731;52.182;8.716;2024-01-11T10:25:08;51.00;;;27.33;;
24567;SDS011;12731;52.182;8.716;2024-01-11T10:27:42;54.47;;;28.08;;
24567;SDS011;12731;52.182;8.716;2024-01-11T10:30:10;52.83;;;27.08;;
24567;SDS011;12731;52.182;8.716;2024-01-11T10:32:46;54.40;;;28.25;;
24567;SDS011;12731;52.182;8.716;2024-01-11T10:35:13;50.35;;;26.73;;
24567;SDS011;12731;52.182;8.716;2024-01-11T10:37:39;53.50;;;26.88;;
24567;SDS011;12731;52.182;8.716;2024-01-11T10:40:08;49.63;;;27.02;;
24567;SDS011;12731;52.182;8.716;2024-01-11T10:42:41;56.45;;;29.65;;
24567;SDS011;12731;52.182;8.716;2024-01-11T10:45:16;53.97;;;29.08;;
24567;SDS011;12731;52.182;8.716;2024-01-11T10:47:50;58.22;;;31.55;;
24567;SDS011;12731;52.182;8.716;2024-01-11T10:50:23;58.25;;;30.20;;
24567;SDS011;12731;52.182;8.716;2024-01-11T10:53:02;56.15;;;30.00;;
24567;SDS011;12731;52.182;8.716;2024-01-11T10:55:48;55.63;;;29.52;;
24567;SDS011;12731;52.182;8.716;2024-01-11T10:58:15;52.60;;;27.92;;
24567;SDS011;12731;52.182;8.716;2024-01-11T11:00:42;56.63;;;28.48;;
24567;SDS011;12731;52.182;8.716;2024-01-11T11:03:09;57.08;;;29.10;;
24567;SDS011;12731;52.182;8.716;2024-01-11T11:05:37;53.85;;;28.27;;
24567;SDS011;12731;52.182;8.716;2024-01-11T11:08:04;49.97;;;28.45;;
24567;SDS011;12731;52.182;8.716;2024-01-11T11:10:34;56.72;;;27.52;;
24567;SDS011;12731;52.182;8.716;2024-01-11T11:13:00;49.38;;;25.27;;
24567;SDS011;12731;52.182;8.716;2024-01-11T11:15:27;53.55;;;27.90;;
24567;SDS011;12731;52.182;8.716;2024-01-11T11:17:54;63.75;;;30.10;;
24567;SDS011;12731;52.182;8.716;2024-01-11T11:20:22;59.90;;;29.90;;
24567;SDS011;12731;52.182;8.716;2024-01-11T11:23:02;56.05;;;28.05;;
24567;SDS011;12731;52.182;8.716;2024-01-11T11:25:31;51.80;;;27.65;;
24567;SDS011;12731;52.182;8.716;2024-01-11T11:27:58;60.38;;;28.33;;
24567;SDS011;12731;52.182;8.716;2024-01-11T11:30:27;51.85;;;28.10;;
24567;SDS011;12731;52.182;8.716;2024-01-11T11:32:54;61.25;;;30.58;;
24567;SDS011;12731;52.182;8.716;2024-01-11T11:35:22;60.35;;;30.80;;
24567;SDS011;12731;52.182;8.716;2024-01-11T11:37:55;65.75;;;34.15;;
24567;SDS011;12731;52.182;8.716;2024-01-11T11:40:32;66.88;;;32.25;;
24567;SDS011;12731;52.182;8.716;2024-01-11T11:43:08;63.42;;;34.03;;
24567;SDS011;12731;52.182;8.716;2024-01-11T11:45:35;66.55;;;34.50;;
24567;SDS011;12731;52.182;8.716;2024-01-11T11:48:02;73.90;;;38.08;;
24567;SDS011;12731;52.182;8.716;2024-01-11T11:51:08;78.55;;;36.78;;
24567;SDS011;12731;52.182;8.716;2024-01-11T11:53:36;67.15;;;32.10;;
24567;SDS011;12731;52.182;8.716;2024-01-11T11:56:03;71.90;;;36.65;;
24567;SDS011;12731;52.182;8.716;2024-01-11T11:58:31;77.53;;;39.45;;
24567;SDS011;12731;52.182;8.716;2024-01-11T12:00:58;71.22;;;33.75;;
24567;SDS011;12731;52.182;8.716;2024-01-11T12:03:26;66.88;;;33.72;;
24567;SDS011;12731;52.182;8.716;2024-01-11T12:05:55;66.45;;;34.17;;
24567;SDS011;12731;52.182;8.716;2024-01-11T12:08:22;79.05;;;39.13;;
24567;SDS011;12731;52.182;8.716;2024-01-11T12:10:48;77.82;;;36.65;;
24567;SDS011;12731;52.182;8.716;2024-01-11T12:13:15;76.57;;;37.38;;
24567;SDS011;12731;52.182;8.716;2024-01-11T12:15:41;68.00;;;33.83;;
24567;SDS011;12731;52.182;8.716;2024-01-11T12:18:08;70.25;;;31.83;;
24567;SDS011;12731;52.182;8.716;2024-01-11T12:20:35;73.22;;;32.92;;
24567;SDS011;12731;52.182;8.716;2024-01-11T12:23:02;74.85;;;36.30;;
24567;SDS011;12731;52.182;8.716;2024-01-11T12:25:29;74.60;;;36.05;;
24567;SDS011;12731;52.182;8.716;2024-01-11T12:27:55;71.07;;;35.03;;
24567;SDS011;12731;52.182;8.716;2024-01-11T12:30:22;75.47;;;36.10;;
24567;SDS011;12731;52.182;8.716;2024-01-11T12:32:50;70.70;;;35.22;;
24567;SDS011;12731;52.182;8.716;2024-01-11T12:35:17;69.88;;;34.33;;
24567;SDS011;12731;52.182;8.716;2024-01-11T12:37:58;74.90;;;35.25;;
24567;SDS011;12731;52.182;8.716;2024-01-11T12:40:25;75.45;;;34.38;;
24567;SDS011;12731;52.182;8.716;2024-01-11T12:42:56;70.22;;;32.50;;
24567;SDS011;12731;52.182;8.716;2024-01-11T12:45:23;64.90;;;30.92;;
24567;SDS011;12731;52.182;8.716;2024-01-11T12:47:52;69.10;;;32.58;;
24567;SDS011;12731;52.182;8.716;2024-01-11T12:50:21;62.55;;;30.55;;
24567;SDS011;12731;52.182;8.716;2024-01-11T12:55:43;66.35;;;30.98;;
24567;SDS011;12731;52.182;8.716;2024-01-11T12:58:22;62.75;;;30.33;;
24567;SDS011;12731;52.182;8.716;2024-01-11T13:00:50;69.95;;;32.05;;
24567;SDS011;12731;52.182;8.716;2024-01-11T13:03:17;77.50;;;33.53;;
24567;SDS011;12731;52.182;8.716;2024-01-11T13:05:46;78.03;;;33.78;;
24567;SDS011;12731;52.182;8.716;2024-01-11T13:08:13;82.10;;;35.65;;
24567;SDS011;12731;52.182;8.716;2024-01-11T13:10:40;80.32;;;34.28;;
24567;SDS011;12731;52.182;8.716;2024-01-11T13:13:07;78.05;;;33.70;;
24567;SDS011;12731;52.182;8.716;2024-01-11T13:15:35;74.35;;;33.13;;
24567;SDS011;12731;52.182;8.716;2024-01-11T13:18:02;77.15;;;33.95;;
24567;SDS011;12731;52.182;8.716;2024-01-11T13:20:29;70.45;;;33.75;;
24567;SDS011;12731;52.182;8.716;2024-01-11T13:23:14;73.35;;;34.95;;
24567;SDS011;12731;52.182;8.716;2024-01-11T13:25:47;69.80;;;34.33;;
24567;SDS011;12731;52.182;8.716;2024-01-11T13:28:15;74.68;;;35.53;;
24567;SDS011;12731;52.182;8.716;2024-01-11T13:30:42;72.90;;;34.45;;
24567;SDS011;12731;52.182;8.716;2024-01-11T13:33:09;74.70;;;36.13;;
24567;SDS011;12731;52.182;8.716;2024-01-11T13:35:42;72.78;;;34.38;;
24567;SDS011;12731;52.182;8.716;2024-01-11T13:38:12;68.00;;;31.83;;
24567;SDS011;12731;52.182;8.716;2024-01-11T13:40:38;64.53;;;31.90;;
24567;SDS011;12731;52.182;8.716;2024-01-11T13:43:06;70.70;;;32.03;;
24567;SDS011;12731;52.182;8.716;2024-01-11T13:45:32;73.00;;;32.60;;
24567;SDS011;12731;52.182;8.716;2024-01-11T13:48:02;71.75;;;33.28;;
24567;SDS011;12731;52.182;8.716;2024-01-11T13:50:29;67.18;;;30.90;;
24567;SDS011;12731;52.182;8.716;2024-01-11T13:52:56;67.50;;;32.45;;
24567;SDS011;12731;52.182;8.716;2024-01-11T13:55:23;70.55;;;31.52;;
24567;SDS011;12731;52.182;8.716;2024-01-11T13:57:50;64.88;;;32.10;;
24567;SDS011;12731;52.182;8.716;2024-01-11T14:00:18;64.07;;;31.25;;
24567;SDS011;12731;52.182;8.716;2024-01-11T14:02:48;64.68;;;31.05;;
24567;SDS011;12731;52.182;8.716;2024-01-11T14:05:15;72.57;;;32.58;;
24567;SDS011;12731;52.182;8.716;2024-01-11T14:07:44;66.30;;;31.02;;
24567;SDS011;12731;52.182;8.716;2024-01-11T14:10:11;79.53;;;32.25;;
24567;SDS011;12731;52.182;8.716;2024-01-11T14:12:39;69.38;;;33.13;;
24567;SDS011;12731;52.182;8.716;2024-01-11T14:15:06;74.75;;;33.88;;
24567;SDS011;12731;52.182;8.716;2024-01-11T14:17:38;67.10;;;32.53;;
24567;SDS011;12731;52.182;8.716;2024-01-11T14:20:05;73.88;;;32.70;;
24567;SDS011;12731;52.182;8.716;2024-01-11T14:22:38;73.93;;;32.85;;
24567;SDS011;12731;52.182;8.716;2024-01-11T14:25:05;72.75;;;33.47;;
24567;SDS011;12731;52.182;8.716;2024-01-11T14:27:32;66.68;;;31.17;;